sensor_id;sensor_type;location;lat;lon;timestamp;temperature;humidity
37086;DHT22;23001;45.952;12.676;2023-03-14T00:01:55;11.30;99.90
37086;DHT22;23001;45.952;12.676;2023-03-14T00:04:21;11.30;99.90
37086;DHT22;23001;45.952;12.676;2023-03-14T00:06:47;11.30;99.90
37086;DHT22;23001;45.952;12.676;2023-03-14T00:09:13;11.30;99.90
37086;DHT22;23001;45.952;12.676;2023-03-14T00:11:39;11.30;99.90
37086;DHT22;23001;45.952;12.676;2023-03-14T00:14:04;11.30;99.90
37086;DHT22;23001;45.952;12.676;2023-03-14T00:16:30;11.30;99.90
37086;DHT22;23001;45.952;12.676;2023-03-14T00:18:57;11.20;99.90
37086;DHT22;23001;45.952;12.676;2023-03-14T00:21:25;11.30;99.90
37086;DHT22;23001;45.952;12.676;2023-03-14T00:23:51;11.30;99.90
37086;DHT22;23001;45.952;12.676;2023-03-14T00:26:20;11.30;99.90
37086;DHT22;23001;45.952;12.676;2023-03-14T00:28:46;11.30;99.90
37086;DHT22;23001;45.952;12.676;2023-03-14T00:33:58;11.30;99.90
37086;DHT22;23001;45.952;12.676;2023-03-14T00:36:24;11.30;99.90
37086;DHT22;23001;45.952;12.676;2023-03-14T00:38:50;11.30;99.90
37086;DHT22;23001;45.952;12.676;2023-03-14T00:41:17;11.30;99.90
37086;DHT22;23001;45.952;12.676;2023-03-14T00:43:43;11.20;99.90
37086;DHT22;23001;45.952;12.676;2023-03-14T00:46:09;11.20;99.90
37086;DHT22;23001;45.952;12.676;2023-03-14T00:48:35;11.20;99.90
37086;DHT22;23001;45.952;12.676;2023-03-14T00:51:02;11.20;99.90
37086;DHT22;23001;45.952;12.676;2023-03-14T00:53:27;11.20;99.90
37086;DHT22;23001;45.952;12.676;2023-03-14T00:59:05;11.20;99.90
37086;DHT22;23001;45.952;12.676;2023-03-14T01:01:46;11.20;99.90
37086;DHT22;23001;45.952;12.676;2023-03-14T01:04:12;11.20;99.90
37086;DHT22;23001;45.952;12.676;2023-03-14T01:06:40;11.20;99.90
37086;DHT22;23001;45.952;12.676;2023-03-14T01:09:08;11.20;99.90
37086;DHT22;23001;45.952;12.676;2023-03-14T01:11:43;11.20;99.90
37086;DHT22;23001;45.952;12.676;2023-03-14T01:14:14;11.20;99.90
37086;DHT22;23001;45.952;12.676;2023-03-14T01:16:40;11.10;99.90
37086;DHT22;23001;45.952;12.676;2023-03-14T01:19:05;11.20;99.90
37086;DHT22;23001;45.952;12.676;2023-03-14T01:21:31;11.20;99.90
37086;DHT22;23001;45.952;12.676;2023-03-14T01:23:58;11.10;99.90
37086;DHT22;23001;45.952;12.676;2023-03-14T01:26:25;11.10;99.90
37086;DHT22;23001;45.952;12.676;2023-03-14T01:28:52;11.10;99.90
37086;DHT22;23001;45.952;12.676;2023-03-14T01:31:20;11.10;99.90
37086;DHT22;23001;45.952;12.676;2023-03-14T01:33:49;11.10;99.90
37086;DHT22;23001;45.952;12.676;2023-03-14T01:36:15;11.10;99.90
37086;DHT22;23001;45.952;12.676;2023-03-14T01:38:41;11.10;99.90
37086;DHT22;23001;45.952;12.676;2023-03-14T01:41:14;11.20;99.90
37086;DHT22;23001;45.952;12.676;2023-03-14T01:43:39;11.20;99.90
37086;DHT22;23001;45.952;12.676;2023-03-14T01:48:31;11.10;99.90
37086;DHT22;23001;45.952;12.676;2023-03-14T01:50:58;11.10;99.90
37086;DHT22;23001;45.952;12.676;2023-03-14T01:53:28;11.10;99.90
37086;DHT22;23001;45.952;12.676;2023-03-14T01:55:54;11.10;99.90
37086;DHT22;23001;45.952;12.676;2023-03-14T01:58:21;11.00;99.90
37086;DHT22;23001;45.952;12.676;2023-03-14T02:00:48;11.00;99.90
37086;DHT22;23001;45.952;12.676;2023-03-14T02:03:14;11.10;99.90
37086;DHT22;23001;45.952;12.676;2023-03-14T02:05:41;11.10;99.90
37086;DHT22;23001;45.952;12.676;2023-03-14T02:08:08;11.10;99.90
37086;DHT22;23001;45.952;12.676;2023-03-14T02:10:37;11.10;99.90
37086;DHT22;23001;45.952;12.676;2023-03-14T02:13:04;11.10;99.90
37086;DHT22;23001;45.952;12.676;2023-03-14T02:15:30;11.00;99.90
37086;DHT22;23001;45.952;12.676;2023-03-14T02:17:56;11.00;99.90
37086;DHT22;23001;45.952;12.676;2023-03-14T02:22:53;11.00;99.90
37086;DHT22;23001;45.952;12.676;2023-03-14T02:27:48;11.00;99.90
37086;DHT22;23001;45.952;12.676;2023-03-14T02:30:14;11.00;99.90
37086;DHT22;23001;45.952;12.676;2023-03-14T02:32:41;11.00;99.90
37086;DHT22;23001;45.952;12.676;2023-03-14T02:35:12;11.00;99.90
37086;DHT22;23001;45.952;12.676;2023-03-14T02:40:14;11.00;99.90
37086;DHT22;23001;45.952;12.676;2023-03-14T02:42:39;11.10;99.90
37086;DHT22;23001;45.952;12.676;2023-03-14T02:47:31;11.00;99.90
37086;DHT22;23001;45.952;12.676;2023-03-14T02:50:00;11.00;99.90
37086;DHT22;23001;45.952;12.676;2023-03-14T02:52:27;10.90;99.90
37086;DHT22;23001;45.952;12.676;2023-03-14T02:54:52;10.90;99.90
37086;DHT22;23001;45.952;12.676;2023-03-14T02:57:18;10.90;99.90
37086;DHT22;23001;45.952;12.676;2023-03-14T02:59:46;10.90;99.90
37086;DHT22;23001;45.952;12.676;2023-03-14T03:02:11;10.80;99.90
37086;DHT22;23001;45.952;12.676;2023-03-14T03:04:56;10.80;99.90
37086;DHT22;23001;45.952;12.676;2023-03-14T03:07:22;10.90;99.90
37086;DHT22;23001;45.952;12.676;2023-03-14T03:09:47;10.90;99.90
37086;DHT22;23001;45.952;12.676;2023-03-14T03:12:13;10.80;99.90
37086;DHT22;23001;45.952;12.676;2023-03-14T03:14:44;10.80;99.90
37086;DHT22;23001;45.952;12.676;2023-03-14T03:17:10;10.80;99.90
37086;DHT22;23001;45.952;12.676;2023-03-14T03:19:35;10.80;99.90
37086;DHT22;23001;45.952;12.676;2023-03-14T03:22:01;10.80;99.90
37086;DHT22;23001;45.952;12.676;2023-03-14T03:24:27;10.80;99.90
37086;DHT22;23001;45.952;12.676;2023-03-14T03:27:01;10.80;99.90
37086;DHT22;23001;45.952;12.676;2023-03-14T03:32:23;10.80;99.90
37086;DHT22;23001;45.952;12.676;2023-03-14T03:34:49;10.90;99.90
37086;DHT22;23001;45.952;12.676;2023-03-14T03:37:17;10.90;99.90
37086;DHT22;23001;45.952;12.676;2023-03-14T03:39:43;10.80;99.90
37086;DHT22;23001;45.952;12.676;2023-03-14T03:42:09;10.90;99.90
37086;DHT22;23001;45.952;12.676;2023-03-14T03:44:49;10.80;99.90
37086;DHT22;23001;45.952;12.676;2023-03-14T03:47:17;10.90;99.90
37086;DHT22;23001;45.952;12.676;2023-03-14T03:49:43;10.90;99.90
37086;DHT22;23001;45.952;12.676;2023-03-14T03:52:08;10.90;99.90
37086;DHT22;23001;45.952;12.676;2023-03-14T03:54:34;10.90;99.90
37086;DHT22;23001;45.952;12.676;2023-03-14T03:57:00;10.90;99.90
37086;DHT22;23001;45.952;12.676;2023-03-14T03:59:28;10.80;99.90
37086;DHT22;23001;45.952;12.676;2023-03-14T04:01:54;10.90;99.90
37086;DHT22;23001;45.952;12.676;2023-03-14T04:04:20;10.90;99.90
37086;DHT22;23001;45.952;12.676;2023-03-14T04:06:45;10.90;99.90
37086;DHT22;23001;45.952;12.676;2023-03-14T04:09:11;10.90;99.90
37086;DHT22;23001;45.952;12.676;2023-03-14T04:11:37;10.90;99.90
37086;DHT22;23001;45.952;12.676;2023-03-14T04:14:06;10.90;99.90
37086;DHT22;23001;45.952;12.676;2023-03-14T04:16:35;10.90;99.90
37086;DHT22;23001;45.952;12.676;2023-03-14T04:19:01;10.90;99.90
37086;DHT22;23001;45.952;12.676;2023-03-14T04:21:27;11.00;99.90
37086;DHT22;23001;45.952;12.676;2023-03-14T04:23:53;11.00;99.90
37086;DHT22;23001;45.952;12.676;2023-03-14T04:26:18;10.90;99.90
37086;DHT22;23001;45.952;12.676;2023-03-14T04:28:44;10.90;99.90
37086;DHT22;23001;45.952;12.676;2023-03-14T04:31:10;10.90;99.90
37086;DHT22;23001;45.952;12.676;2023-03-14T04:33:39;10.90;99.90
37086;DHT22;23001;45.952;12.676;2023-03-14T04:36:05;10.90;99.90
37086;DHT22;23001;45.952;12.676;2023-03-14T04:38:31;10.90;99.90
37086;DHT22;23001;45.952;12.676;2023-03-14T04:40:57;10.90;99.90
37086;DHT22;23001;45.952;12.676;2023-03-14T04:43:22;10.90;99.90
37086;DHT22;23001;45.952;12.676;2023-03-14T04:45:48;11.00;99.90
37086;DHT22;23001;45.952;12.676;2023-03-14T04:50:53;10.90;99.90
37086;DHT22;23001;45.952;12.676;2023-03-14T04:53:31;10.90;99.90
37086;DHT22;23001;45.952;12.676;2023-03-14T04:55:57;10.90;99.90
37086;DHT22;23001;45.952;12.676;2023-03-14T04:58:23;10.90;99.90
37086;DHT22;23001;45.952;12.676;2023-03-14T05:00:49;10.90;99.90
37086;DHT22;23001;45.952;12.676;2023-03-14T05:03:15;10.90;99.90
37086;DHT22;23001;45.952;12.676;2023-03-14T05:05:41;10.90;99.90
37086;DHT22;23001;45.952;12.676;2023-03-14T05:08:06;10.90;99.90
37086;DHT22;23001;45.952;12.676;2023-03-14T05:10:35;10.90;99.90
37086;DHT22;23001;45.952;12.676;2023-03-14T05:13:01;10.90;99.90
37086;DHT22;23001;45.952;12.676;2023-03-14T05:15:26;10.90;99.90
37086;DHT22;23001;45.952;12.676;2023-03-14T05:17:52;10.90;99.90
37086;DHT22;23001;45.952;12.676;2023-03-14T05:20:20;10.90;99.90
37086;DHT22;23001;45.952;12.676;2023-03-14T05:22:55;10.90;99.90
37086;DHT22;23001;45.952;12.676;2023-03-14T05:25:24;10.90;99.90
37086;DHT22;23001;45.952;12.676;2023-03-14T05:27:49;10.90;99.90
37086;DHT22;23001;45.952;12.676;2023-03-14T05:30:17;11.00;99.90
37086;DHT22;23001;45.952;12.676;2023-03-14T05:32:46;11.00;99.90
37086;DHT22;23001;45.952;12.676;2023-03-14T05:35:12;10.90;99.90
37086;DHT22;23001;45.952;12.676;2023-03-14T05:37:38;10.90;99.90
37086;DHT22;23001;45.952;12.676;2023-03-14T05:40:08;11.00;99.90
37086;DHT22;23001;45.952;12.676;2023-03-14T05:42:36;11.00;99.90
37086;DHT22;23001;45.952;12.676;2023-03-14T05:45:02;11.00;99.90
37086;DHT22;23001;45.952;12.676;2023-03-14T05:47:27;11.00;99.90
37086;DHT22;23001;45.952;12.676;2023-03-14T05:49:53;10.90;99.90
37086;DHT22;23001;45.952;12.676;2023-03-14T05:52:19;10.90;99.90
37086;DHT22;23001;45.952;12.676;2023-03-14T05:54:44;10.90;99.90
37086;DHT22;23001;45.952;12.676;2023-03-14T05:57:10;10.90;99.90
37086;DHT22;23001;45.952;12.676;2023-03-14T05:59:36;10.90;99.90
37086;DHT22;23001;45.952;12.676;2023-03-14T06:02:01;10.90;99.90
37086;DHT22;23001;45.952;12.676;2023-03-14T06:04:27;10.90;99.90
37086;DHT22;23001;45.952;12.676;2023-03-14T06:06:52;10.90;99.90
37086;DHT22;23001;45.952;12.676;2023-03-14T06:09:18;10.90;99.90
37086;DHT22;23001;45.952;12.676;2023-03-14T06:11:47;10.90;99.90
37086;DHT22;23001;45.952;12.676;2023-03-14T06:14:16;10.90;99.90
37086;DHT22;23001;45.952;12.676;2023-03-14T06:40:56;10.90;99.90
37086;DHT22;23001;45.952;12.676;2023-03-14T06:43:30;10.90;99.90
37086;DHT22;23001;45.952;12.676;2023-03-14T06:45:56;10.90;99.90
37086;DHT22;23001;45.952;12.676;2023-03-14T06:48:21;10.90;99.90
37086;DHT22;23001;45.952;12.676;2023-03-14T06:53:22;10.90;99.90
37086;DHT22;23001;45.952;12.676;2023-03-14T06:55:48;10.90;99.90
37086;DHT22;23001;45.952;12.676;2023-03-14T06:58:21;10.90;99.90
37086;DHT22;23001;45.952;12.676;2023-03-14T07:00:47;11.00;99.90
37086;DHT22;23001;45.952;12.676;2023-03-14T07:03:14;11.00;99.90
37086;DHT22;23001;45.952;12.676;2023-03-14T07:05:40;11.00;99.90
37086;DHT22;23001;45.952;12.676;2023-03-14T07:08:07;11.00;99.90
37086;DHT22;23001;45.952;12.676;2023-03-14T07:10:40;11.00;99.90
37086;DHT22;23001;45.952;12.676;2023-03-14T07:13:06;11.00;99.90
37086;DHT22;23001;45.952;12.676;2023-03-14T07:15:34;11.00;99.90
37086;DHT22;23001;45.952;12.676;2023-03-14T07:18:00;11.00;99.90
37086;DHT22;23001;45.952;12.676;2023-03-14T07:20:37;11.10;99.90
37086;DHT22;23001;45.952;12.676;2023-03-14T07:23:12;11.10;99.90
37086;DHT22;23001;45.952;12.676;2023-03-14T07:25:40;11.10;99.90
37086;DHT22;23001;45.952;12.676;2023-03-14T07:28:07;11.20;99.90
37086;DHT22;23001;45.952;12.676;2023-03-14T07:30:33;11.20;99.90
37086;DHT22;23001;45.952;12.676;2023-03-14T07:32:58;11.20;99.90
37086;DHT22;23001;45.952;12.676;2023-03-14T07:35:33;11.20;99.90
37086;DHT22;23001;45.952;12.676;2023-03-14T07:37:58;11.20;99.90
37086;DHT22;23001;45.952;12.676;2023-03-14T07:40:24;11.20;99.90
37086;DHT22;23001;45.952;12.676;2023-03-14T07:42:50;11.20;99.90
37086;DHT22;23001;45.952;12.676;2023-03-14T07:45:29;11.20;99.90
37086;DHT22;23001;45.952;12.676;2023-03-14T07:47:57;11.20;99.90
37086;DHT22;23001;45.952;12.676;2023-03-14T07:50:23;11.20;99.90
37086;DHT22;23001;45.952;12.676;2023-03-14T07:52:49;11.20;99.90
37086;DHT22;23001;45.952;12.676;2023-03-14T07:55:15;11.20;99.90
37086;DHT22;23001;45.952;12.676;2023-03-14T07:57:43;11.20;99.90
37086;DHT22;23001;45.952;12.676;2023-03-14T08:00:09;11.20;99.90
37086;DHT22;23001;45.952;12.676;2023-03-14T08:02:36;11.20;99.90
37086;DHT22;23001;45.952;12.676;2023-03-14T08:05:02;11.20;99.90
37086;DHT22;23001;45.952;12.676;2023-03-14T08:07:28;11.20;99.90
37086;DHT22;23001;45.952;12.676;2023-03-14T08:09:53;11.30;99.90
37086;DHT22;23001;45.952;12.676;2023-03-14T08:12:19;11.20;99.90
37086;DHT22;23001;45.952;12.676;2023-03-14T08:14:44;11.20;99.90
37086;DHT22;23001;45.952;12.676;2023-03-14T08:17:10;11.20;99.90
37086;DHT22;23001;45.952;12.676;2023-03-14T08:19:36;11.20;99.90
37086;DHT22;23001;45.952;12.676;2023-03-14T08:22:01;11.30;99.90
37086;DHT22;23001;45.952;12.676;2023-03-14T08:24:31;11.30;99.90
37086;DHT22;23001;45.952;12.676;2023-03-14T08:26:56;11.30;99.90
37086;DHT22;23001;45.952;12.676;2023-03-14T08:29:22;11.30;99.90
37086;DHT22;23001;45.952;12.676;2023-03-14T08:31:55;11.30;99.90
37086;DHT22;23001;45.952;12.676;2023-03-14T08:34:27;11.30;99.90
37086;DHT22;23001;45.952;12.676;2023-03-14T08:36:53;11.20;99.90
37086;DHT22;23001;45.952;12.676;2023-03-14T08:39:20;11.20;99.90
37086;DHT22;23001;45.952;12.676;2023-03-14T08:41:46;11.20;99.90
37086;DHT22;23001;45.952;12.676;2023-03-14T08:44:12;11.20;99.90
37086;DHT22;23001;45.952;12.676;2023-03-14T08:46:47;11.20;99.90
37086;DHT22;23001;45.952;12.676;2023-03-14T08:49:13;11.30;99.90
37086;DHT22;23001;45.952;12.676;2023-03-14T08:51:39;11.30;99.90
37086;DHT22;23001;45.952;12.676;2023-03-14T08:54:05;11.30;99.90
37086;DHT22;23001;45.952;12.676;2023-03-14T08:56:34;11.40;99.90
37086;DHT22;23001;45.952;12.676;2023-03-14T08:59:05;11.40;99.90
37086;DHT22;23001;45.952;12.676;2023-03-14T09:01:31;11.50;99.90
37086;DHT22;23001;45.952;12.676;2023-03-14T09:03:57;11.50;99.90
37086;DHT22;23001;45.952;12.676;2023-03-14T09:06:22;11.70;99.90
37086;DHT22;23001;45.952;12.676;2023-03-14T09:08:50;11.70;99.90
37086;DHT22;23001;45.952;12.676;2023-03-14T09:11:16;11.70;99.90
37086;DHT22;23001;45.952;12.676;2023-03-14T09:13:43;11.70;99.90
37086;DHT22;23001;45.952;12.676;2023-03-14T09:16:08;11.80;99.90
37086;DHT22;23001;45.952;12.676;2023-03-14T09:18:34;11.90;99.90
37086;DHT22;23001;45.952;12.676;2023-03-14T09:21:00;11.90;99.90
37086;DHT22;23001;45.952;12.676;2023-03-14T09:23:25;12.00;99.90
37086;DHT22;23001;45.952;12.676;2023-03-14T09:25:57;12.00;99.90
37086;DHT22;23001;45.952;12.676;2023-03-14T09:28:23;12.10;99.90
37086;DHT22;23001;45.952;12.676;2023-03-14T09:30:48;12.20;99.90
37086;DHT22;23001;45.952;12.676;2023-03-14T09:33:15;12.30;99.90
37086;DHT22;23001;45.952;12.676;2023-03-14T09:35:40;12.40;99.90
37086;DHT22;23001;45.952;12.676;2023-03-14T09:38:06;12.50;99.90
37086;DHT22;23001;45.952;12.676;2023-03-14T09:40:33;12.50;99.90
37086;DHT22;23001;45.952;12.676;2023-03-14T09:42:59;12.50;99.90
37086;DHT22;23001;45.952;12.676;2023-03-14T09:47:51;12.50;99.90
37086;DHT22;23001;45.952;12.676;2023-03-14T09:50:17;12.50;99.90
37086;DHT22;23001;45.952;12.676;2023-03-14T09:52:45;12.50;99.90
37086;DHT22;23001;45.952;12.676;2023-03-14T09:55:15;12.50;99.90
37086;DHT22;23001;45.952;12.676;2023-03-14T09:57:42;12.40;99.90
37086;DHT22;23001;45.952;12.676;2023-03-14T10:00:14;12.40;99.90
37086;DHT22;23001;45.952;12.676;2023-03-14T10:02:40;12.50;99.90
37086;DHT22;23001;45.952;12.676;2023-03-14T10:05:14;12.40;99.90
37086;DHT22;23001;45.952;12.676;2023-03-14T10:07:40;12.40;99.90
37086;DHT22;23001;45.952;12.676;2023-03-14T10:10:10;12.30;99.90
37086;DHT22;23001;45.952;12.676;2023-03-14T10:12:36;12.30;99.90
37086;DHT22;23001;45.952;12.676;2023-03-14T10:15:04;12.30;99.90
37086;DHT22;23001;45.952;12.676;2023-03-14T10:17:37;12.40;99.90
37086;DHT22;23001;45.952;12.676;2023-03-14T10:20:03;12.40;99.90
37086;DHT22;23001;45.952;12.676;2023-03-14T10:22:29;12.40;99.90
37086;DHT22;23001;45.952;12.676;2023-03-14T10:24:56;12.40;99.90
37086;DHT22;23001;45.952;12.676;2023-03-14T10:27:28;12.50;99.90
37086;DHT22;23001;45.952;12.676;2023-03-14T10:30:05;12.70;99.90
37086;DHT22;23001;45.952;12.676;2023-03-14T10:32:33;13.00;99.90
37086;DHT22;23001;45.952;12.676;2023-03-14T10:37:34;13.00;99.90
37086;DHT22;23001;45.952;12.676;2023-03-14T10:40:00;12.90;99.90
37086;DHT22;23001;45.952;12.676;2023-03-14T10:42:39;12.80;99.90
37086;DHT22;23001;45.952;12.676;2023-03-14T10:45:05;12.70;99.90
37086;DHT22;23001;45.952;12.676;2023-03-14T10:47:33;12.60;99.90
37086;DHT22;23001;45.952;12.676;2023-03-14T10:50:19;12.50;99.90
37086;DHT22;23001;45.952;12.676;2023-03-14T10:52:47;12.50;99.90
37086;DHT22;23001;45.952;12.676;2023-03-14T10:55:14;12.60;99.90
37086;DHT22;23001;45.952;12.676;2023-03-14T10:57:40;12.60;99.90
37086;DHT22;23001;45.952;12.676;2023-03-14T11:00:09;12.60;99.90
37086;DHT22;23001;45.952;12.676;2023-03-14T11:07:46;12.70;99.90
37086;DHT22;23001;45.952;12.676;2023-03-14T11:15:50;12.70;99.90
37086;DHT22;23001;45.952;12.676;2023-03-14T11:24:02;12.70;99.90
37086;DHT22;23001;45.952;12.676;2023-03-14T11:26:41;12.70;99.90
37086;DHT22;23001;45.952;12.676;2023-03-14T11:29:12;12.70;99.90
37086;DHT22;23001;45.952;12.676;2023-03-14T11:31:41;12.80;99.90
37086;DHT22;23001;45.952;12.676;2023-03-14T11:39:16;12.80;99.90
37086;DHT22;23001;45.952;12.676;2023-03-14T11:41:51;12.90;99.90
37086;DHT22;23001;45.952;12.676;2023-03-14T11:46:53;13.00;99.90
37086;DHT22;23001;45.952;12.676;2023-03-14T11:51:50;12.90;99.90
37086;DHT22;23001;45.952;12.676;2023-03-14T11:56:50;12.80;99.90
37086;DHT22;23001;45.952;12.676;2023-03-14T12:01:59;12.70;99.90
37086;DHT22;23001;45.952;12.676;2023-03-14T12:07:06;12.70;99.90
37086;DHT22;23001;45.952;12.676;2023-03-14T12:09:33;12.70;99.90
37086;DHT22;23001;45.952;12.676;2023-03-14T12:12:00;12.70;99.90
37086;DHT22;23001;45.952;12.676;2023-03-14T12:14:27;12.80;99.90
37086;DHT22;23001;45.952;12.676;2023-03-14T12:16:54;12.80;99.90
37086;DHT22;23001;45.952;12.676;2023-03-14T12:21:51;12.80;99.90
37086;DHT22;23001;45.952;12.676;2023-03-14T12:24:20;12.80;99.90
37086;DHT22;23001;45.952;12.676;2023-03-14T12:26:57;12.80;99.90
37086;DHT22;23001;45.952;12.676;2023-03-14T12:29:24;12.70;99.90
37086;DHT22;23001;45.952;12.676;2023-03-14T12:32:06;12.70;99.90
37086;DHT22;23001;45.952;12.676;2023-03-14T12:34:32;12.70;99.90
37086;DHT22;23001;45.952;12.676;2023-03-14T12:37:17;12.70;99.90
37086;DHT22;23001;45.952;12.676;2023-03-14T12:42:17;12.70;99.90
37086;DHT22;23001;45.952;12.676;2023-03-14T12:44:46;12.60;99.90
37086;DHT22;23001;45.952;12.676;2023-03-14T12:49:43;12.60;99.90
37086;DHT22;23001;45.952;12.676;2023-03-14T12:52:19;12.70;99.90
37086;DHT22;23001;45.952;12.676;2023-03-14T13:02:20;12.50;99.90
37086;DHT22;23001;45.952;12.676;2023-03-14T13:04:48;12.50;99.90
37086;DHT22;23001;45.952;12.676;2023-03-14T13:10:05;12.50;99.90
37086;DHT22;23001;45.952;12.676;2023-03-14T13:18:01;12.50;99.90
37086;DHT22;23001;45.952;12.676;2023-03-14T13:20:37;12.50;99.90
37086;DHT22;23001;45.952;12.676;2023-03-14T13:23:04;12.50;99.90
37086;DHT22;23001;45.952;12.676;2023-03-14T13:25:31;12.50;99.90
37086;DHT22;23001;45.952;12.676;2023-03-14T13:27:57;12.50;99.90
37086;DHT22;23001;45.952;12.676;2023-03-14T13:30:24;12.60;99.90
37086;DHT22;23001;45.952;12.676;2023-03-14T13:32:51;12.70;99.90
37086;DHT22;23001;45.952;12.676;2023-03-14T13:35:18;12.80;99.90
37086;DHT22;23001;45.952;12.676;2023-03-14T13:37:44;12.90;99.90
37086;DHT22;23001;45.952;12.676;2023-03-14T13:40:19;12.90;99.90
37086;DHT22;23001;45.952;12.676;2023-03-14T13:42:45;13.00;99.90
37086;DHT22;23001;45.952;12.676;2023-03-14T13:45:12;13.00;99.90
37086;DHT22;23001;45.952;12.676;2023-03-14T13:47:38;12.90;99.90
37086;DHT22;23001;45.952;12.676;2023-03-14T13:50:04;13.00;99.90
37086;DHT22;23001;45.952;12.676;2023-03-14T13:52:36;12.90;99.90
37086;DHT22;23001;45.952;12.676;2023-03-14T13:55:02;12.90;99.90
37086;DHT22;23001;45.952;12.676;2023-03-14T13:57:42;13.00;99.90
37086;DHT22;23001;45.952;12.676;2023-03-14T14:00:16;13.10;99.90
37086;DHT22;23001;45.952;12.676;2023-03-14T14:02:42;13.10;99.90
37086;DHT22;23001;45.952;12.676;2023-03-14T14:05:10;13.10;99.90
37086;DHT22;23001;45.952;12.676;2023-03-14T14:07:35;13.10;99.90
37086;DHT22;23001;45.952;12.676;2023-03-14T14:13:00;13.10;99.90
37086;DHT22;23001;45.952;12.676;2023-03-14T14:15:28;13.30;99.90
37086;DHT22;23001;45.952;12.676;2023-03-14T14:17:58;13.30;99.90
37086;DHT22;23001;45.952;12.676;2023-03-14T14:20:32;13.40;99.90
37086;DHT22;23001;45.952;12.676;2023-03-14T14:23:18;13.50;99.90
37086;DHT22;23001;45.952;12.676;2023-03-14T14:25:45;13.60;99.90
37086;DHT22;23001;45.952;12.676;2023-03-14T14:28:21;13.70;99.90
37086;DHT22;23001;45.952;12.676;2023-03-14T14:30:58;13.80;99.90
37086;DHT22;23001;45.952;12.676;2023-03-14T14:33:24;13.90;99.90
37086;DHT22;23001;45.952;12.676;2023-03-14T14:35:51;13.80;99.90
37086;DHT22;23001;45.952;12.676;2023-03-14T14:38:17;13.70;99.90
37086;DHT22;23001;45.952;12.676;2023-03-14T14:40:46;13.50;99.90
37086;DHT22;23001;45.952;12.676;2023-03-14T14:43:17;13.40;99.90
37086;DHT22;23001;45.952;12.676;2023-03-14T14:45:43;13.30;99.90
37086;DHT22;23001;45.952;12.676;2023-03-14T14:48:10;13.30;99.90
37086;DHT22;23001;45.952;12.676;2023-03-14T14:50:58;13.40;99.90
37086;DHT22;23001;45.952;12.676;2023-03-14T14:53:31;13.40;99.90
37086;DHT22;23001;45.952;12.676;2023-03-14T14:58:40;13.20;99.90
37086;DHT22;23001;45.952;12.676;2023-03-14T15:01:19;13.20;99.90
37086;DHT22;23001;45.952;12.676;2023-03-14T15:03:46;13.20;99.90
37086;DHT22;23001;45.952;12.676;2023-03-14T15:06:13;13.20;99.90
37086;DHT22;23001;45.952;12.676;2023-03-14T15:08:45;13.30;99.90
37086;DHT22;23001;45.952;12.676;2023-03-14T15:11:17;13.30;99.90
37086;DHT22;23001;45.952;12.676;2023-03-14T15:13:43;13.40;99.90
37086;DHT22;23001;45.952;12.676;2023-03-14T15:16:12;13.40;99.90
37086;DHT22;23001;45.952;12.676;2023-03-14T15:18:39;13.40;99.90
37086;DHT22;23001;45.952;12.676;2023-03-14T15:21:05;13.40;99.90
37086;DHT22;23001;45.952;12.676;2023-03-14T15:23:30;13.30;99.90
37086;DHT22;23001;45.952;12.676;2023-03-14T15:25:56;13.20;99.90
37086;DHT22;23001;45.952;12.676;2023-03-14T15:28:26;13.20;99.90
37086;DHT22;23001;45.952;12.676;2023-03-14T15:30:52;13.10;99.90
37086;DHT22;23001;45.952;12.676;2023-03-14T15:33:19;13.00;99.90
37086;DHT22;23001;45.952;12.676;2023-03-14T15:35:45;13.00;99.90
37086;DHT22;23001;45.952;12.676;2023-03-14T15:38:11;13.00;99.90
37086;DHT22;23001;45.952;12.676;2023-03-14T15:40:37;13.00;99.90
37086;DHT22;23001;45.952;12.676;2023-03-14T15:43:24;13.00;99.90
37086;DHT22;23001;45.952;12.676;2023-03-14T15:45:52;13.00;99.90
37086;DHT22;23001;45.952;12.676;2023-03-14T15:48:18;13.10;99.90
37086;DHT22;23001;45.952;12.676;2023-03-14T15:50:44;13.10;99.90
37086;DHT22;23001;45.952;12.676;2023-03-14T15:53:10;13.10;99.90
37086;DHT22;23001;45.952;12.676;2023-03-14T15:55:40;13.10;99.90
37086;DHT22;23001;45.952;12.676;2023-03-14T15:58:07;13.20;99.90
37086;DHT22;23001;45.952;12.676;2023-03-14T16:00:39;13.20;99.90
37086;DHT22;23001;45.952;12.676;2023-03-14T16:03:05;13.10;99.90
37086;DHT22;23001;45.952;12.676;2023-03-14T16:05:30;13.10;99.90
37086;DHT22;23001;45.952;12.676;2023-03-14T16:07:56;13.10;99.90
37086;DHT22;23001;45.952;12.676;2023-03-14T16:10:22;13.00;99.90
37086;DHT22;23001;45.952;12.676;2023-03-14T16:12:47;12.90;99.90
37086;DHT22;23001;45.952;12.676;2023-03-14T16:15:16;12.80;99.90
37086;DHT22;23001;45.952;12.676;2023-03-14T16:17:42;12.80;99.90
37086;DHT22;23001;45.952;12.676;2023-03-14T16:20:08;12.70;99.90
37086;DHT22;23001;45.952;12.676;2023-03-14T16:22:34;12.60;99.90
37086;DHT22;23001;45.952;12.676;2023-03-14T16:25:02;12.50;99.90
37086;DHT22;23001;45.952;12.676;2023-03-14T16:27:27;12.50;99.90
37086;DHT22;23001;45.952;12.676;2023-03-14T16:32:44;12.40;99.90
37086;DHT22;23001;45.952;12.676;2023-03-14T16:35:10;12.40;99.90
37086;DHT22;23001;45.952;12.676;2023-03-14T16:37:39;12.40;99.90
37086;DHT22;23001;45.952;12.676;2023-03-14T16:43:00;12.30;99.90
37086;DHT22;23001;45.952;12.676;2023-03-14T16:45:28;12.30;99.90
37086;DHT22;23001;45.952;12.676;2023-03-14T16:47:54;12.30;99.90
37086;DHT22;23001;45.952;12.676;2023-03-14T16:50:20;12.30;99.90
37086;DHT22;23001;45.952;12.676;2023-03-14T16:52:46;12.30;99.90
37086;DHT22;23001;45.952;12.676;2023-03-14T16:55:23;12.30;99.90
37086;DHT22;23001;45.952;12.676;2023-03-14T16:57:48;12.30;99.90
37086;DHT22;23001;45.952;12.676;2023-03-14T17:00:23;12.20;99.90
37086;DHT22;23001;45.952;12.676;2023-03-14T17:02:48;12.20;99.90
37086;DHT22;23001;45.952;12.676;2023-03-14T17:05:14;12.20;99.90
37086;DHT22;23001;45.952;12.676;2023-03-14T17:07:40;12.20;99.90
37086;DHT22;23001;45.952;12.676;2023-03-14T17:10:05;12.20;99.90
37086;DHT22;23001;45.952;12.676;2023-03-14T17:12:31;12.20;99.90
37086;DHT22;23001;45.952;12.676;2023-03-14T17:14:58;12.20;99.90
37086;DHT22;23001;45.952;12.676;2023-03-14T17:17:24;12.20;99.90
37086;DHT22;23001;45.952;12.676;2023-03-14T17:19:50;12.10;99.90
37086;DHT22;23001;45.952;12.676;2023-03-14T17:22:15;12.10;99.90
37086;DHT22;23001;45.952;12.676;2023-03-14T17:24:41;12.10;99.90